Time;durP1;ratioP1;P1;durP2;ratioP2;P2;SDS_P1;SDS_P2;PMS_P1;PMS_P2;Temp;Humidity;BMP_temperature;BMP_pressure;BME280_temperature;BME280_humidity;BME280_pressure;Samples;Min_cycle;Max_cycle;Signal;HPM_P1;HPM_P2
2022/05/15 00:02:12;;;;;;;3.72;1.80;;;14.30;49.50;;;;;;5085489;28;20066;-63
2022/05/15 00:04:39;;;;;;;4.28;1.73;;;14.30;49.50;;;;;;5083023;28;20032;-61
2022/05/15 00:07:06;;;;;;;3.45;1.90;;;14.30;49.80;;;;;;5089991;28;20024;-61
2022/05/15 00:09:32;;;;;;;5.82;1.73;;;14.30;50.00;;;;;;5086929;28;20032;-61
2022/05/15 00:11:58;;;;;;;2.95;2.10;;;14.20;50.10;;;;;;5080935;28;20043;-61
2022/05/15 00:14:24;;;;;;;5.53;1.80;;;14.20;50.30;;;;;;5087126;28;20028;-61
2022/05/15 00:16:50;;;;;;;10.40;1.90;;;14.20;50.30;;;;;;5082049;28;20048;-61
2022/05/15 00:19:15;;;;;;;2.33;1.40;;;14.10;50.30;;;;;;5084851;28;20025;-61
2022/05/15 00:21:41;;;;;;;3.63;1.80;;;14.10;50.40;;;;;;5078674;28;20064;-61
2022/05/15 00:24:07;;;;;;;4.05;1.60;;;14.10;50.50;;;;;;5082633;28;20056;-62
2022/05/15 00:26:34;;;;;;;4.25;1.70;;;14.00;50.70;;;;;;5076927;28;20151;-61
2022/05/15 00:29:00;;;;;;;4.75;1.60;;;14.00;50.70;;;;;;5074277;28;20040;-61
2022/05/15 00:31:27;;;;;;;2.60;1.48;;;13.90;50.80;;;;;;5088086;28;20035;-61
2022/05/15 00:33:53;;;;;;;2.75;1.48;;;13.90;50.90;;;;;;5084178;28;20442;-61
2022/05/15 00:36:19;;;;;;;5.90;1.42;;;13.90;51.00;;;;;;5083973;28;20426;-63
2022/05/15 00:38:44;;;;;;;6.22;1.83;;;13.90;51.20;;;;;;5072893;28;20021;-60
2022/05/15 00:41:11;;;;;;;2.42;1.48;;;13.90;51.30;;;;;;5084684;28;20033;-61
2022/05/15 00:43:47;;;;;;;3.75;1.33;;;13.90;51.40;;;;;;5077467;28;20092;-61
2022/05/15 00:46:19;;;;;;;5.13;1.52;;;13.90;51.90;;;;;;5077072;28;20044;-61
2022/05/15 00:48:46;;;;;;;2.55;1.48;;;13.90;51.40;;;;;;5076714;28;20060;-62
2022/05/15 00:51:24;;;;;;;3.47;1.45;;;13.80;51.50;;;;;;5084697;28;20052;-62
2022/05/15 00:53:56;;;;;;;3.78;1.35;;;13.80;52.20;;;;;;5083199;28;20036;-60
2022/05/15 00:56:24;;;;;;;4.30;1.67;;;13.80;52.00;;;;;;5072948;28;20092;-61
2022/05/15 00:58:58;;;;;;;3.72;1.67;;;13.70;51.80;;;;;;5089075;28;20027;-62
2022/05/15 01:01:24;;;;;;;2.55;1.48;;;13.70;52.30;;;;;;5082647;28;20016;-61
2022/05/15 01:03:50;;;;;;;5.25;1.58;;;13.70;51.90;;;;;;5079811;28;20036;-61
2022/05/15 01:06:17;;;;;;;2.60;1.30;;;13.70;52.00;;;;;;5085461;28;20051;-60
2022/05/15 01:08:43;;;;;;;3.55;1.38;;;13.70;52.10;;;;;;5086860;28;20025;-62
2022/05/15 01:11:12;;;;;;;8.85;2.25;;;13.70;52.20;;;;;;5077252;28;20108;-61
2022/05/15 01:13:40;;;;;;;4.05;1.90;;;13.60;52.60;;;;;;5077944;28;20059;-61
2022/05/15 01:16:07;;;;;;;8.90;2.25;;;13.60;52.40;;;;;;5087047;28;20028;-61
2022/05/15 01:18:35;;;;;;;2.00;1.45;;;13.60;52.40;;;;;;5086457;28;20084;-61
2022/05/15 01:21:16;;;;;;;4.63;1.52;;;13.50;52.50;;;;;;5086129;28;20428;-61
2022/05/15 01:23:42;;;;;;;3.72;1.70;;;13.50;52.50;;;;;;5087084;28;20024;-61
2022/05/15 01:26:07;;;;;;;5.60;1.80;;;13.50;52.50;;;;;;5073013;28;20086;-61
2022/05/15 01:28:33;;;;;;;7.95;1.85;;;13.40;52.60;;;;;;5080604;28;20032;-61
2022/05/15 01:30:59;;;;;;;4.13;1.90;;;13.40;52.80;;;;;;5087144;28;20418;-61
2022/05/15 01:33:25;;;;;;;2.28;1.45;;;13.40;52.90;;;;;;5084324;28;20597;-61
2022/05/15 01:35:50;;;;;;;3.00;1.42;;;13.40;53.00;;;;;;5074659;28;20021;-61
2022/05/15 01:38:18;;;;;;;3.13;1.63;;;13.30;53.00;;;;;;5081896;28;20032;-61
2022/05/15 01:40:44;;;;;;;3.60;1.23;;;13.30;53.20;;;;;;5078339;28;20031;-62
2022/05/15 01:43:10;;;;;;;3.33;1.80;;;13.30;53.30;;;;;;5079808;28;20033;-61
2022/05/15 01:45:35;;;;;;;2.53;1.38;;;13.20;53.30;;;;;;5069843;28;20017;-61
2022/05/15 01:48:02;;;;;;;2.58;1.65;;;13.20;53.40;;;;;;5092120;28;20048;-61
2022/05/15 01:50:28;;;;;;;4.75;1.48;;;13.10;53.50;;;;;;5080442;28;20048;-61
2022/05/15 01:52:53;;;;;;;2.45;1.45;;;13.10;53.80;;;;;;5085028;28;20047;-61
2022/05/15 01:55:19;;;;;;;5.28;1.25;;;13.10;53.90;;;;;;5080279;28;20027;-61
2022/05/15 01:57:45;;;;;;;5.70;1.67;;;13.10;54.00;;;;;;5080942;28;20032;-60
2022/05/15 02:00:16;;;;;;;1.58;1.27;;;13.00;54.00;;;;;;5081448;28;20071;-61
2022/05/15 02:02:42;;;;;;;2.20;1.30;;;13.00;54.40;;;;;;5081149;28;20039;-60
2022/05/15 02:05:08;;;;;;;2.22;1.20;;;13.00;54.20;;;;;;5080406;28;20032;-61
2022/05/15 02:10:10;;;;;;;4.70;1.42;;;12.90;54.40;;;;;;6036919;22;20017;-63
2022/05/15 02:12:37;;;;;;;2.58;1.23;;;12.90;54.50;;;;;;5036221;28;20018;-63
2022/05/15 02:15:05;;;;;;;2.35;1.27;;;12.90;54.60;;;;;;5042440;28;20028;-64
2022/05/15 02:17:32;;;;;;;6.22;1.38;;;12.90;54.60;;;;;;5040555;28;20044;-63
2022/05/15 02:19:59;;;;;;;2.53;1.23;;;12.90;54.70;;;;;;5036045;28;20124;-62
2022/05/15 02:22:25;;;;;;;3.88;1.50;;;12.80;54.70;;;;;;5041886;28;20051;-63
2022/05/15 02:24:50;;;;;;;2.90;1.30;;;12.80;54.80;;;;;;5039262;28;20025;-66
2022/05/15 02:27:16;;;;;;;5.60;1.40;;;12.80;55.00;;;;;;5040052;28;20050;-65
2022/05/15 02:29:42;;;;;;;2.97;1.27;;;12.80;54.90;;;;;;5040616;28;20059;-62
2022/05/15 02:32:08;;;;;;;4.45;1.40;;;12.70;55.00;;;;;;5042027;28;20071;-65
2022/05/15 02:34:34;;;;;;;2.35;1.13;;;12.70;55.10;;;;;;5037854;28;20076;-64
2022/05/15 02:37:00;;;;;;;7.13;1.50;;;12.70;55.20;;;;;;5040727;28;20025;-64
2022/05/15 02:39:25;;;;;;;3.40;1.45;;;12.60;55.30;;;;;;5039884;28;20028;-64
2022/05/15 02:41:51;;;;;;;2.67;1.30;;;12.60;55.40;;;;;;5042409;28;20029;-64
2022/05/15 02:44:17;;;;;;;1.77;1.10;;;12.60;55.50;;;;;;5041459;28;20506;-64
2022/05/15 02:46:42;;;;;;;3.00;1.25;;;12.60;55.60;;;;;;5040584;28;20029;-64
2022/05/15 02:51:52;;;;;;;3.55;1.30;;;12.50;55.70;;;;;;5037411;28;20048;-63
2022/05/15 02:54:18;;;;;;;4.03;1.60;;;12.50;55.50;;;;;;5037558;28;20089;-63
2022/05/15 02:56:44;;;;;;;3.85;1.20;;;12.50;55.80;;;;;;5041041;28;20021;-63
2022/05/15 02:59:09;;;;;;;1.75;1.25;;;12.50;55.90;;;;;;5042468;28;20029;-64
2022/05/15 03:01:36;;;;;;;2.25;1.40;;;12.50;56.00;;;;;;5040055;28;20541;-65
2022/05/15 03:04:02;;;;;;;4.88;2.05;;;12.50;56.10;;;;;;5039266;28;20025;-63
2022/05/15 03:06:29;;;;;;;4.18;2.08;;;12.40;56.20;;;;;;5037720;28;20029;-63
2022/05/15 03:08:54;;;;;;;5.65;2.95;;;12.40;56.30;;;;;;5040622;28;20087;-63
2022/05/15 03:11:20;;;;;;;5.53;2.90;;;12.40;56.50;;;;;;5036232;28;20050;-63
2022/05/15 03:13:46;;;;;;;5.22;1.77;;;12.40;56.60;;;;;;5037644;28;20029;-63
2022/05/15 03:16:13;;;;;;;4.38;1.58;;;12.40;56.60;;;;;;5039195;28;20039;-63
2022/05/15 03:18:45;;;;;;;3.08;1.60;;;12.40;56.70;;;;;;5039852;28;20112;-63
2022/05/15 03:21:13;;;;;;;4.00;1.50;;;12.40;57.10;;;;;;5036584;28;20026;-63
2022/05/15 03:23:39;;;;;;;2.80;1.75;;;12.40;56.80;;;;;;5039592;28;20038;-63
2022/05/15 03:26:05;;;;;;;3.42;1.90;;;12.40;56.70;;;;;;5036611;28;20033;-63
2022/05/15 03:28:30;;;;;;;4.97;2.00;;;12.40;56.70;;;;;;5040188;28;20031;-63
2022/05/15 03:30:56;;;;;;;4.63;1.63;;;12.30;56.70;;;;;;5035010;28;20541;-63
2022/05/15 03:33:22;;;;;;;1.88;1.30;;;12.30;56.80;;;;;;5038792;28;20033;-63
2022/05/15 03:35:48;;;;;;;2.75;1.20;;;12.30;56.80;;;;;;5035697;28;20026;-63
2022/05/15 03:38:14;;;;;;;2.58;1.40;;;12.30;56.90;;;;;;5037544;28;20030;-63
2022/05/15 03:40:39;;;;;;;2.80;1.75;;;12.30;56.90;;;;;;5038348;28;20044;-62
2022/05/15 03:43:06;;;;;;;2.83;1.45;;;12.20;57.00;;;;;;5039117;28;20029;-65
2022/05/15 03:45:32;;;;;;;5.75;1.50;;;12.20;57.10;;;;;;5055162;28;20033;-64
2022/05/15 03:47:58;;;;;;;4.20;2.40;;;12.20;57.30;;;;;;5039504;28;20025;-64
2022/05/15 03:50:27;;;;;;;3.65;2.03;;;12.20;57.50;;;;;;5037573;28;20042;-63
2022/05/15 03:52:53;;;;;;;2.28;1.65;;;12.20;57.70;;;;;;5040478;28;20021;-64
2022/05/15 03:55:19;;;;;;;2.70;1.85;;;12.20;57.50;;;;;;5033917;28;20041;-64
2022/05/15 03:57:45;;;;;;;5.18;1.60;;;12.10;57.60;;;;;;5038169;28;20030;-64
2022/05/15 04:00:15;;;;;;;3.25;1.70;;;12.10;57.60;;;;;;5042533;28;20083;-64
2022/05/15 04:02:41;;;;;;;3.92;1.60;;;12.10;57.80;;;;;;5036119;28;20541;-64
2022/05/15 04:05:10;;;;;;;3.85;1.77;;;12.10;57.70;;;;;;5038308;28;20049;-64
2022/05/15 04:07:50;;;;;;;3.85;1.45;;;12.10;57.90;;;;;;5041021;28;20026;-64
2022/05/15 04:10:20;;;;;;;4.18;1.60;;;12.10;58.90;;;;;;5040935;28;20053;-63
2022/05/15 04:12:46;;;;;;;4.82;1.73;;;12.10;58.10;;;;;;5037659;28;20026;-64
2022/05/15 04:15:12;;;;;;;4.00;1.88;;;12.10;58.00;;;;;;5044314;28;20099;-64
2022/05/15 04:17:43;;;;;;;3.28;1.85;;;12.10;58.20;;;;;;5042814;28;20025;-64
2022/05/15 04:20:23;;;;;;;3.25;1.77;;;12.10;58.50;;;;;;5043057;28;20022;-65
2022/05/15 04:22:49;;;;;;;5.63;2.40;;;12.20;59.00;;;;;;5044652;28;20034;-65
2022/05/15 04:25:15;;;;;;;5.55;1.92;;;12.20;58.40;;;;;;5042762;28;20025;-64
2022/05/15 04:27:42;;;;;;;2.65;1.40;;;12.20;58.50;;;;;;5041066;28;20620;-64
2022/05/15 04:30:10;;;;;;;5.53;1.60;;;12.30;58.60;;;;;;5043228;28;20270;-64
2022/05/15 04:32:36;;;;;;;2.42;1.40;;;12.30;58.30;;;;;;5042244;28;20069;-63
2022/05/15 04:35:02;;;;;;;2.40;1.13;;;12.30;58.20;;;;;;5045724;28;20037;-63
2022/05/15 04:37:28;;;;;;;2.80;1.42;;;12.40;58.20;;;;;;5039683;28;20040;-63
2022/05/15 04:39:54;;;;;;;3.38;1.50;;;12.40;58.20;;;;;;5042464;28;20017;-63
2022/05/15 04:42:19;;;;;;;2.45;1.45;;;12.50;58.20;;;;;;5042832;28;20025;-64
2022/05/15 04:44:45;;;;;;;2.83;1.48;;;12.50;58.20;;;;;;5040329;28;20028;-64
2022/05/15 04:47:12;;;;;;;4.80;1.58;;;12.60;58.30;;;;;;5039783;28;20681;-64
2022/05/15 04:49:38;;;;;;;2.13;1.40;;;12.70;58.30;;;;;;5038359;28;20152;-63
2022/05/15 04:52:04;;;;;;;2.90;1.30;;;12.70;58.30;;;;;;5039669;28;20383;-63
2022/05/15 04:54:29;;;;;;;3.10;1.40;;;12.80;58.30;;;;;;5041910;28;20523;-63
2022/05/15 04:56:55;;;;;;;7.35;1.42;;;12.90;58.10;;;;;;5046603;28;20034;-64
2022/05/15 04:59:21;;;;;;;2.92;1.30;;;13.00;58.10;;;;;;5043013;28;20750;-64
2022/05/15 05:01:46;;;;;;;1.95;1.20;;;13.00;58.20;;;;;;5047233;28;20022;-64
2022/05/15 05:04:12;;;;;;;4.15;1.58;;;13.10;58.10;;;;;;5055064;28;20096;-63
2022/05/15 05:06:38;;;;;;;3.17;1.50;;;13.20;57.90;;;;;;5037210;28;20021;-64
2022/05/15 05:09:03;;;;;;;2.03;1.17;;;13.30;57.80;;;;;;5043621;28;20051;-64
2022/05/15 05:11:29;;;;;;;3.00;1.50;;;13.40;57.70;;;;;;5043800;28;20053;-64
2022/05/15 05:13:55;;;;;;;3.40;1.25;;;13.50;57.70;;;;;;5048265;28;20045;-62
2022/05/15 05:16:21;;;;;;;2.25;1.50;;;13.60;57.50;;;;;;5040438;28;20018;-64
2022/05/15 05:18:49;;;;;;;3.83;1.17;;;13.70;57.40;;;;;;4997757;28;20038;-65
2022/05/15 05:21:15;;;;;;;1.70;1.10;;;13.80;57.40;;;;;;5040272;28;20060;-64
2022/05/15 05:23:40;;;;;;;1.58;1.10;;;13.90;57.40;;;;;;5040083;28;20022;-65
2022/05/15 05:26:06;;;;;;;3.03;1.50;;;14.00;57.20;;;;;;5038505;28;20080;-64
2022/05/15 05:28:32;;;;;;;2.53;1.50;;;14.10;57.20;;;;;;5051705;28;20021;-64
2022/05/15 05:30:58;;;;;;;3.38;1.65;;;14.20;57.30;;;;;;5039512;28;20030;-64
2022/05/15 05:33:24;;;;;;;2.42;1.35;;;14.40;57.30;;;;;;5038940;28;20071;-64
2022/05/15 05:35:50;;;;;;;2.15;1.30;;;14.50;57.10;;;;;;5040969;28;20025;-64
2022/05/15 05:38:17;;;;;;;2.30;1.45;;;14.70;57.00;;;;;;5039791;28;20025;-65
2022/05/15 05:40:43;;;;;;;9.32;1.58;;;14.80;56.80;;;;;;5040756;28;20166;-64
2022/05/15 05:43:09;;;;;;;3.22;1.30;;;14.90;56.70;;;;;;5039449;28;20053;-64
2022/05/15 05:45:36;;;;;;;2.97;1.38;;;15.10;56.60;;;;;;5040619;28;20587;-64
2022/05/15 05:48:01;;;;;;;2.88;1.48;;;15.30;56.50;;;;;;5040131;28;20029;-64
2022/05/15 05:50:28;;;;;;;3.83;1.40;;;15.40;56.30;;;;;;5040189;28;20132;-64
2022/05/15 05:52:54;;;;;;;2.45;1.35;;;15.60;56.10;;;;;;5039323;28;20009;-64
2022/05/15 05:55:21;;;;;;;5.72;1.50;;;15.80;55.90;;;;;;5038963;28;20029;-64
2022/05/15 05:57:48;;;;;;;1.80;1.25;;;15.90;55.80;;;;;;5040725;28;20025;-64
2022/05/15 06:00:26;;;;;;;1.85;1.35;;;16.10;55.70;;;;;;5042903;28;20056;-64
2022/05/15 06:02:52;;;;;;;2.88;1.42;;;16.30;55.60;;;;;;5050407;28;20040;-64
2022/05/15 06:05:19;;;;;;;2.20;1.33;;;16.40;55.20;;;;;;5043646;28;20025;-65
2022/05/15 06:07:44;;;;;;;2.70;1.42;;;16.60;55.10;;;;;;5040182;28;20022;-63
2022/05/15 06:10:13;;;;;;;4.22;1.80;;;16.80;55.00;;;;;;5037948;28;20100;-62
2022/05/15 06:12:42;;;;;;;2.45;1.23;;;17.00;54.70;;;;;;5037907;28;20081;-63
2022/05/15 06:15:09;;;;;;;3.65;1.55;;;17.10;54.50;;;;;;5036617;28;20132;-62
2022/05/15 06:17:35;;;;;;;2.75;1.25;;;17.30;54.30;;;;;;5040019;28;20021;-62
2022/05/15 06:20:05;;;;;;;5.85;1.35;;;17.40;54.00;;;;;;5044644;28;20371;-62
2022/05/15 06:22:31;;;;;;;2.92;1.67;;;17.60;54.10;;;;;;5040210;28;20029;-62
2022/05/15 06:24:57;;;;;;;3.03;1.50;;;17.70;53.90;;;;;;5038384;28;20033;-63
2022/05/15 06:27:22;;;;;;;2.67;1.50;;;17.90;53.80;;;;;;5039564;28;20033;-63
2022/05/15 06:29:48;;;;;;;9.43;1.30;;;18.00;53.60;;;;;;5039391;28;20044;-62
2022/05/15 06:32:14;;;;;;;1.50;1.00;;;18.20;54.00;;;;;;5042991;28;20032;-63
2022/05/15 06:34:40;;;;;;;4.82;1.40;;;18.40;53.20;;;;;;5040094;28;20042;-63
2022/05/15 06:37:05;;;;;;;2.45;1.33;;;18.60;53.50;;;;;;5040857;28;20029;-63
2022/05/15 06:39:31;;;;;;;3.65;1.40;;;18.80;52.70;;;;;;5041478;28;20522;-62
2022/05/15 06:41:59;;;;;;;5.68;1.60;;;18.90;52.60;;;;;;5040363;28;20075;-62
2022/05/15 06:44:26;;;;;;;2.10;1.30;;;19.10;52.60;;;;;;5040165;28;20025;-64
2022/05/15 06:46:51;;;;;;;2.65;1.40;;;19.30;52.60;;;;;;5038295;28;20029;-62
2022/05/15 06:49:17;;;;;;;3.95;1.58;;;19.50;52.20;;;;;;5036010;28;20030;-62
2022/05/15 06:51:43;;;;;;;2.40;1.38;;;19.70;51.90;;;;;;5039490;28;20021;-62
2022/05/15 06:54:09;;;;;;;4.95;1.20;;;19.80;51.50;;;;;;5040601;28;20041;-61
2022/05/15 06:59:19;;;;;;;3.17;1.38;;;20.20;51.10;;;;;;5038116;28;20100;-61
2022/05/15 07:01:45;;;;;;;3.35;1.75;;;20.40;50.60;;;;;;5041847;28;20029;-62
2022/05/15 07:04:10;;;;;;;4.85;1.50;;;20.60;50.10;;;;;;5039766;28;20033;-63
2022/05/15 07:06:36;;;;;;;7.53;1.20;;;20.80;49.60;;;;;;5043064;28;20072;-63
2022/05/15 07:09:01;;;;;;;3.17;1.33;;;21.00;49.30;;;;;;5036949;28;20075;-63
2022/05/15 07:11:27;;;;;;;3.65;1.35;;;21.10;49.10;;;;;;5030387;28;20041;-62
2022/05/15 07:13:53;;;;;;;3.83;1.60;;;21.30;48.70;;;;;;5038648;28;20036;-60
2022/05/15 07:16:19;;;;;;;5.20;1.70;;;21.40;48.30;;;;;;5036962;28;20098;-62
2022/05/15 07:18:45;;;;;;;2.72;1.30;;;21.60;48.10;;;;;;4982719;28;20030;-63
2022/05/15 07:21:10;;;;;;;5.88;1.30;;;21.70;47.90;;;;;;5037486;28;20036;-60
2022/05/15 07:23:37;;;;;;;3.58;1.30;;;21.80;47.30;;;;;;5041540;28;20040;-61
2022/05/15 07:26:03;;;;;;;3.70;1.20;;;21.90;47.10;;;;;;5036587;28;20543;-61
2022/05/15 07:28:28;;;;;;;3.80;1.40;;;22.00;47.00;;;;;;5033503;28;20026;-62
2022/05/15 07:30:55;;;;;;;9.68;3.92;;;22.20;46.90;;;;;;5034143;28;20026;-62
2022/05/15 07:33:23;;;;;;;7.82;2.63;;;22.30;46.40;;;;;;5040377;28;20080;-62
2022/05/15 07:35:49;;;;;;;5.00;1.80;;;22.40;46.20;;;;;;5040087;28;20081;-62
2022/05/15 07:38:16;;;;;;;10.98;1.90;;;22.50;46.20;;;;;;5034662;28;20021;-62
2022/05/15 07:40:43;;;;;;;4.18;1.40;;;22.60;46.10;;;;;;5037685;28;20059;-62
2022/05/15 07:43:11;;;;;;;5.55;2.42;;;22.80;46.30;;;;;;5039306;28;20049;-61
2022/05/15 07:45:37;;;;;;;7.72;2.83;;;22.80;45.50;;;;;;5042134;28;20029;-61
2022/05/15 07:48:03;;;;;;;5.35;1.80;;;22.90;45.20;;;;;;5042120;28;20025;-61
2022/05/15 07:50:29;;;;;;;2.53;1.33;;;23.00;44.70;;;;;;5042019;28;20100;-62
2022/05/15 07:52:55;;;;;;;3.22;1.10;;;23.10;44.40;;;;;;5043512;28;20022;-62
2022/05/15 07:55:21;;;;;;;4.15;1.33;;;23.20;44.50;;;;;;5042277;28;20415;-63
2022/05/15 07:57:47;;;;;;;8.82;1.95;;;23.30;43.90;;;;;;5040139;28;20030;-62
2022/05/15 08:00:14;;;;;;;5.90;1.35;;;23.40;43.70;;;;;;5042246;28;20057;-62
2022/05/15 08:02:41;;;;;;;4.45;1.48;;;23.50;43.80;;;;;;5043019;28;20507;-62
2022/05/15 08:08:05;;;;;;;6.00;1.20;;;23.70;43.10;;;;;;5038615;28;20041;-62
2022/05/15 08:10:38;;;;;;;4.00;1.38;;;23.80;43.60;;;;;;5041470;28;20365;-64
2022/05/15 08:13:05;;;;;;;2.00;1.23;;;23.90;42.80;;;;;;5039755;28;20466;-64
2022/05/15 08:15:34;;;;;;;2.58;1.00;;;24.00;43.30;;;;;;5042837;28;20523;-63
2022/05/15 08:23:33;;;;;;;3.13;1.00;;;24.10;42.90;;;;;;5038844;28;20083;-64
2022/05/15 08:23:33;;;;;;;4.97;1.30;;;24.40;42.60;;;;;;5038479;28;20036;-61
2022/05/15 08:26:00;;;;;;;4.00;1.35;;;24.50;42.60;;;;;;5039651;28;20041;-61
2022/05/15 08:28:26;;;;;;;4.05;1.20;;;24.60;42.50;;;;;;5040320;28;20017;-63
2022/05/15 08:30:53;;;;;;;2.25;1.20;;;24.70;41.90;;;;;;5036969;28;20036;-63
2022/05/15 08:33:19;;;;;;;3.33;1.10;;;24.70;41.80;;;;;;5038167;28;20033;-63
2022/05/15 08:35:44;;;;;;;2.30;1.10;;;24.80;41.80;;;;;;5042835;28;20033;-63
2022/05/15 08:38:10;;;;;;;2.08;0.85;;;25.00;41.90;;;;;;5039714;28;20056;-63
2022/05/15 08:40:58;;;;;;;4.93;1.30;;;25.00;41.40;;;;;;5037263;28;20040;-61
2022/05/15 08:43:34;;;;;;;2.33;1.00;;;25.10;40.40;;;;;;5042561;28;20034;-63
2022/05/15 08:46:05;;;;;;;5.50;1.42;;;25.20;40.00;;;;;;5037018;28;20045;-62
2022/05/15 08:48:36;;;;;;;4.72;1.25;;;25.30;40.20;;;;;;5039339;28;20043;-62
2022/05/15 08:51:04;;;;;;;4.25;1.23;;;25.40;40.90;;;;;;5042408;28;20084;-63
2022/05/15 08:53:34;;;;;;;3.97;1.25;;;25.40;40.10;;;;;;5033690;28;20068;-63
2022/05/15 08:56:07;;;;;;;8.93;1.20;;;25.50;40.00;;;;;;5041441;28;20033;-63
2022/05/15 08:58:50;;;;;;;2.63;1.20;;;25.60;39.10;;;;;;5041048;28;20026;-61
2022/05/15 09:01:20;;;;;;;4.30;1.08;;;25.70;39.60;;;;;;5042833;28;20032;-64
2022/05/15 09:03:46;;;;;;;4.72;0.90;;;25.80;38.90;;;;;;5041204;28;20045;-64
2022/05/15 09:06:37;;;;;;;2.80;0.90;;;25.80;38.80;;;;;;5042291;28;20056;-63
2022/05/15 09:09:20;;;;;;;2.05;1.05;;;25.90;38.40;;;;;;5034421;28;20075;-62
2022/05/15 09:12:05;;;;;;;3.10;1.70;;;26.10;38.00;;;;;;5036230;28;20108;-62
2022/05/15 09:14:53;;;;;;;2.78;0.95;;;26.20;37.50;;;;;;5039055;28;20036;-62
2022/05/15 09:17:53;;;;;;;4.13;1.00;;;26.30;37.80;;;;;;5038102;28;20029;-61
2022/05/15 09:20:18;;;;;;;3.15;0.90;;;26.40;36.40;;;;;;5040441;28;20035;-62
2022/05/15 09:23:13;;;;;;;1.42;1.05;;;26.40;37.80;;;;;;5040944;28;20435;-61
2022/05/15 09:25:39;;;;;;;5.03;1.25;;;26.50;37.30;;;;;;5035843;28;20092;-61
2022/05/15 09:28:09;;;;;;;3.55;1.00;;;26.60;38.00;;;;;;5036517;28;20053;-60
2022/05/15 09:30:47;;;;;;;4.63;0.70;;;26.60;37.20;;;;;;5038539;28;20063;-63
2022/05/15 09:33:34;;;;;;;2.78;1.10;;;26.80;37.20;;;;;;5034282;28;20022;-62
2022/05/15 09:36:22;;;;;;;4.25;0.80;;;26.80;36.60;;;;;;5039455;28;20060;-62
2022/05/15 09:39:06;;;;;;;2.35;0.90;;;26.90;35.80;;;;;;5044225;28;20090;-62
2022/05/15 09:44:27;;;;;;;2.07;0.90;;;27.10;32.70;;;;;;5038767;28;19916;-62
2022/05/15 09:47:14;;;;;;;5.93;0.80;;;27.10;35.50;;;;;;5040939;28;20086;-63
2022/05/15 09:49:39;;;;;;;1.67;0.75;;;27.20;34.60;;;;;;5036082;28;20033;-63
2022/05/15 09:52:17;;;;;;;3.58;0.90;;;27.20;35.30;;;;;;5041074;28;20503;-60
2022/05/15 09:54:46;;;;;;;2.42;1.00;;;27.20;34.30;;;;;;5036296;28;20308;-62
2022/05/15 09:57:24;;;;;;;5.35;1.00;;;27.30;34.90;;;;;;5042122;28;20122;-62
2022/05/15 10:00:00;;;;;;;3.13;1.35;;;27.30;33.90;;;;;;5039775;28;20029;-62
2022/05/15 10:02:26;;;;;;;4.65;1.00;;;27.40;34.00;;;;;;5039969;28;20028;-62
2022/05/15 10:04:53;;;;;;;3.67;1.30;;;27.50;34.20;;;;;;5036267;28;20108;-62
2022/05/15 10:07:34;;;;;;;2.13;1.00;;;27.50;34.00;;;;;;5037392;28;20026;-63
2022/05/15 10:10:17;;;;;;;2.25;0.85;;;27.60;32.10;;;;;;5031097;28;20033;-63
2022/05/15 10:12:47;;;;;;;1.30;0.80;;;27.60;32.90;;;;;;5038186;28;20036;-62
2022/05/15 10:15:14;;;;;;;3.78;0.95;;;27.70;34.10;;;;;;5037423;28;20053;-63
2022/05/15 10:17:52;;;;;;;5.28;1.13;;;27.80;33.80;;;;;;5038069;28;20025;-63
2022/05/15 10:20:21;;;;;;;3.97;1.30;;;27.90;33.80;;;;;;5039540;28;20039;-63
2022/05/15 10:22:56;;;;;;;4.45;1.50;;;28.00;33.80;;;;;;5035395;28;20021;-62
2022/05/15 10:25:49;;;;;;;5.97;3.53;;;28.10;32.00;;;;;;5037663;28;20093;-62
2022/05/15 10:28:44;;;;;;;2.95;1.67;;;28.20;32.70;;;;;;5043128;28;20064;-63
2022/05/15 10:31:58;;;;;;;3.25;1.30;;;28.30;33.20;;;;;;5038722;28;20084;-62
2022/05/15 10:34:26;;;;;;;1.95;1.00;;;28.40;32.40;;;;;;5033908;28;20053;-63
2022/05/15 10:37:11;;;;;;;3.72;1.00;;;28.50;33.10;;;;;;5035688;28;20068;-63
2022/05/15 10:39:54;;;;;;;2.42;0.88;;;28.50;32.50;;;;;;5038713;28;20036;-63
2022/05/15 10:42:32;;;;;;;3.15;1.10;;;28.50;32.10;;;;;;5038927;28;20479;-62
2022/05/15 10:45:28;;;;;;;3.42;1.30;;;28.60;31.00;;;;;;5037338;28;20476;-62
2022/05/15 10:48:12;;;;;;;1.45;0.75;;;28.60;30.30;;;;;;5055615;28;20059;-63
2022/05/15 10:50:40;;;;;;;;;;;28.70;31.90;;;;;;5039881;28;20395;-61
2022/05/15 10:59:27;;;;;;;1.98;0.82;;;28.70;31.70;;;;;;5039575;28;20060;-63
2022/05/15 11:02:14;;;;;;;6.85;2.50;;;28.90;31.80;;;;;;5039953;28;20022;-63
2022/05/15 11:05:00;;;;;;;5.90;2.63;;;28.80;31.50;;;;;;5039972;28;20033;-63
2022/05/15 11:07:55;;;;;;;4.85;1.25;;;28.70;30.90;;;;;;5035705;28;20026;-63
2022/05/15 11:10:31;;;;;;;3.92;1.00;;;28.60;31.90;;;;;;5038711;28;20061;-63
2022/05/15 11:13:12;;;;;;;1.77;0.60;;;28.60;31.70;;;;;;5036245;28;20037;-64
2022/05/15 11:16:24;;;;;;;1.63;0.80;;;28.60;32.30;;;;;;5038727;28;20040;-63
2022/05/15 11:19:05;;;;;;;5.80;1.00;;;28.60;31.10;;;;;;5005931;28;20089;-63
2022/05/15 11:21:41;;;;;;;2.67;0.90;;;28.60;31.60;;;;;;5044162;28;20104;-63
2022/05/15 11:24:28;;;;;;;3.67;0.80;;;28.70;32.00;;;;;;5041830;28;20026;-63
2022/05/15 11:26:58;;;;;;;5.05;0.80;;;28.70;32.80;;;;;;5040381;28;20337;-64
2022/05/15 11:29:25;;;;;;;3.28;1.10;;;28.80;32.30;;;;;;5045402;28;20491;-62
2022/05/15 11:31:56;;;;;;;3.38;1.13;;;28.90;31.80;;;;;;5042284;28;20039;-62
2022/05/15 11:35:00;;;;;;;2.42;0.88;;;29.00;30.60;;;;;;5042787;28;20025;-62
2022/05/15 11:37:43;;;;;;;10.67;1.23;;;29.00;30.00;;;;;;5041822;28;20025;-62
2022/05/15 11:40:29;;;;;;;2.40;0.77;;;29.00;30.00;;;;;;5039491;28;20288;-62
2022/05/15 11:42:55;;;;;;;4.32;0.90;;;29.10;30.80;;;;;;5041694;28;20061;-62
2022/05/15 11:45:33;;;;;;;1.20;0.73;;;29.10;30.70;;;;;;5044663;28;20033;-63
2022/05/15 11:48:18;;;;;;;1.95;0.73;;;29.20;31.20;;;;;;5046734;28;20033;-63
2022/05/15 11:50:52;;;;;;;1.75;0.88;;;29.30;29.40;;;;;;5043906;28;20060;-62
2022/05/15 11:53:34;;;;;;;1.52;0.80;;;29.30;31.30;;;;;;5042200;28;20038;-61
2022/05/15 11:56:31;;;;;;;1.92;0.80;;;29.40;29.90;;;;;;5042877;28;20034;-63
2022/05/15 11:59:01;;;;;;;10.02;0.82;;;29.50;30.20;;;;;;5047430;28;20106;-61
2022/05/15 12:01:38;;;;;;;1.15;0.68;;;29.60;30.00;;;;;;5044202;28;20025;-63
2022/05/15 12:04:09;;;;;;;2.50;0.70;;;29.60;30.00;;;;;;5044666;28;20892;-63
2022/05/15 12:06:47;;;;;;;5.03;0.75;;;29.70;29.70;;;;;;5048552;28;20024;-63
2022/05/15 12:09:16;;;;;;;2.75;0.80;;;29.70;28.70;;;;;;5041374;28;20037;-62
2022/05/15 12:11:50;;;;;;;1.95;0.70;;;29.80;28.80;;;;;;5045327;28;20041;-62
2022/05/15 12:14:22;;;;;;;;;;;29.80;29.00;;;;;;5040466;28;20041;-62
2022/05/15 12:16:54;;;;;;;2.33;0.70;;;29.90;30.00;;;;;;5042956;28;20027;-63
2022/05/15 12:19:27;;;;;;;1.55;0.70;;;30.00;28.90;;;;;;5039013;28;20052;-63
2022/05/15 12:21:56;;;;;;;12.10;3.65;;;30.00;28.10;;;;;;5044177;28;20037;-62
2022/05/15 12:24:29;;;;;;;5.75;1.17;;;30.00;28.30;;;;;;5043502;28;20030;-62
2022/05/15 12:27:23;;;;;;;3.85;0.70;;;30.10;27.00;;;;;;5044841;28;20040;-62
2022/05/15 12:30:04;;;;;;;2.60;0.70;;;30.10;27.20;;;;;;5039680;28;20076;-64
2022/05/15 12:32:47;;;;;;;1.63;0.80;;;30.20;27.50;;;;;;5039883;28;20033;-63
2022/05/15 12:35:25;;;;;;;7.47;0.70;;;30.30;27.90;;;;;;5041479;28;20033;-63
2022/05/15 12:38:03;;;;;;;1.73;0.82;;;30.40;27.90;;;;;;5038935;28;20028;-64
2022/05/15 12:40:33;;;;;;;1.95;0.70;;;30.50;27.50;;;;;;5035649;28;20090;-63
2022/05/15 12:43:00;;;;;;;2.47;0.80;;;30.50;27.50;;;;;;5039543;28;20041;-63
2022/05/15 12:45:26;;;;;;;1.77;0.70;;;30.50;26.70;;;;;;5033592;28;20033;-63
2022/05/15 12:48:07;;;;;;;1.88;0.88;;;30.50;27.00;;;;;;5041576;28;20028;-62
2022/05/15 12:50:34;;;;;;;1.83;0.70;;;30.60;26.40;;;;;;5053787;28;20037;-63
2022/05/15 12:53:03;;;;;;;1.45;0.57;;;30.60;27.00;;;;;;5042486;28;20045;-64
2022/05/15 12:55:35;;;;;;;1.13;0.70;;;30.70;27.10;;;;;;5042795;28;20028;-62
2022/05/15 12:58:05;;;;;;;2.90;0.73;;;30.70;26.40;;;;;;5039205;28;20025;-61
2022/05/15 13:00:41;;;;;;;1.42;0.70;;;30.80;27.00;;;;;;5035959;28;20049;-63
2022/05/15 13:03:10;;;;;;;6.22;0.82;;;30.80;26.10;;;;;;5040571;28;20025;-62
2022/05/15 13:05:48;;;;;;;2.63;0.50;;;30.90;26.40;;;;;;5033443;28;20112;-63
2022/05/15 13:08:14;;;;;;;4.75;0.90;;;31.00;27.10;;;;;;5038472;28;20045;-62
2022/05/15 13:10:54;;;;;;;0.90;0.40;;;31.00;26.60;;;;;;5039223;28;20056;-62
2022/05/15 13:13:25;;;;;;;1.80;0.77;;;31.10;26.20;;;;;;5038759;28;20115;-62
2022/05/15 13:15:54;;;;;;;1.92;0.80;;;31.20;26.00;;;;;;5040734;28;20029;-63
2022/05/15 13:18:22;;;;;;;2.55;0.80;;;31.20;25.90;;;;;;5037405;28;20105;-61
2022/05/15 13:21:09;;;;;;;2.60;0.68;;;31.20;25.50;;;;;;5036848;28;20382;-62
2022/05/15 13:23:46;;;;;;;2.10;0.73;;;31.40;26.00;;;;;;5041943;28;20033;-62
2022/05/15 13:26:24;;;;;;;2.92;0.82;;;31.50;25.90;;;;;;4979955;28;20033;-61
2022/05/15 13:28:49;;;;;;;2.50;0.77;;;31.50;26.00;;;;;;5039225;28;20550;-61